Time;durP1;ratioP1;P1;durP2;ratioP2;P2;SDS_P1;SDS_P2;PMS_P1;PMS_P2;Temp;Humidity;BMP_temperature;BMP_pressure;BME280_temperature;BME280_humidity;BME280_pressure;Samples;Min_cycle;Max_cycle;Signal;HPM_P1;HPM_P2
2023/07/06 00:01:39;;;;;;;23.65;16.08;;;;;;;14.23;100.00;101465.41;5033275;28;20041;-72
2023/07/06 00:04:04;;;;;;;22.63;15.52;;;;;;;14.18;100.00;101475.56;5035884;28;20526;-72
2023/07/06 00:06:32;;;;;;;23.90;15.95;;;;;;;14.11;100.00;101474.28;5034839;28;20588;-72
2023/07/06 00:09:00;;;;;;;24.80;16.23;;;;;;;14.09;100.00;101479.75;5036159;28;20037;-72
2023/07/06 00:11:39;;;;;;;26.75;16.08;;;;;;;14.06;100.00;101477.28;5033854;28;20037;-72
2023/07/06 00:14:07;;;;;;;24.65;16.02;;;;;;;14.10;100.00;101480.59;5030765;28;20026;-72
2023/07/06 00:16:33;;;;;;;27.30;17.98;;;;;;;14.06;100.00;101482.66;5038805;28;20040;-72
2023/07/06 00:18:59;;;;;;;34.38;19.60;;;;;;;14.07;100.00;101486.19;5037407;28;20043;-72
2023/07/06 00:21:31;;;;;;;29.33;18.20;;;;;;;14.08;100.00;101480.72;5038001;28;20056;-72
2023/07/06 00:23:57;;;;;;;30.13;18.85;;;;;;;14.08;100.00;101486.06;5031505;28;20515;-72
2023/07/06 00:26:22;;;;;;;32.22;21.85;;;;;;;14.06;100.00;101485.34;5031373;28;20069;-72
2023/07/06 00:28:48;;;;;;;34.92;21.00;;;;;;;14.09;100.00;101492.28;5031709;28;20026;-72
2023/07/06 00:31:21;;;;;;;28.42;21.30;;;;;;;14.14;100.00;101490.16;5035700;28;20064;-72
2023/07/06 00:33:48;;;;;;;32.83;22.70;;;;;;;14.09;100.00;101492.28;5031872;28;20034;-72
2023/07/06 00:36:15;;;;;;;40.90;25.80;;;;;;;14.07;100.00;101494.22;5045721;28;20119;-72
2023/07/06 00:38:41;;;;;;;33.20;24.40;;;;;;;14.11;100.00;101493.91;5034061;28;20025;-72
2023/07/06 00:41:08;;;;;;;34.35;25.08;;;;;;;14.06;100.00;101500.56;5045616;28;20843;-72
2023/07/06 00:43:55;;;;;;;39.08;26.45;;;;;;;14.07;100.00;101505.81;5038291;28;20033;-72
2023/07/06 00:46:24;;;;;;;36.45;25.73;;;;;;;14.09;100.00;101498.50;5035157;28;20068;-72
2023/07/06 00:48:51;;;;;;;33.72;24.75;;;;;;;14.16;100.00;101502.53;5036644;28;20241;-72
2023/07/06 00:51:22;;;;;;;39.00;25.60;;;;;;;14.08;100.00;101501.31;5036713;28;20120;-72
2023/07/06 00:53:56;;;;;;;37.70;25.37;;;;;;;14.21;100.00;101495.00;5041367;28;20049;-72
2023/07/06 00:56:28;;;;;;;36.70;24.75;;;;;;;14.32;100.00;101494.28;5043848;28;20037;-72
2023/07/06 00:59:05;;;;;;;41.37;26.33;;;;;;;14.34;100.00;101497.69;5035716;28;20104;-72
2023/07/06 01:01:36;;;;;;;38.83;25.38;;;;;;;14.25;100.00;101498.31;5032401;28;20138;-71
2023/07/06 01:04:04;;;;;;;41.50;26.13;;;;;;;14.40;100.00;101504.47;5040759;28;20464;-72
2023/07/06 01:06:36;;;;;;;45.13;30.48;;;;;;;14.35;100.00;101503.94;5032335;28;21417;-72
2023/07/06 01:09:06;;;;;;;38.15;26.50;;;;;;;14.42;100.00;101510.59;5038354;28;20126;-72
2023/07/06 01:11:35;;;;;;;39.15;27.80;;;;;;;14.42;100.00;101502.56;5036448;28;20340;-71
2023/07/06 01:14:01;;;;;;;40.90;25.77;;;;;;;14.48;100.00;101499.47;5030321;28;20176;-71
2023/07/06 01:16:54;;;;;;;37.63;27.73;;;;;;;14.32;100.00;101507.69;5036827;28;20060;-71
2023/07/06 01:19:29;;;;;;;;;;;;;;;14.32;100.00;101504.16;5030303;28;20030;-72
2023/07/06 01:22:12;;;;;;;36.97;23.80;;;;;;;14.30;100.00;101509.59;5034228;28;19925;-71
2023/07/06 01:25:09;;;;;;;44.53;26.30;;;;;;;14.42;100.00;101505.25;5043262;28;20231;-71
2023/07/06 01:27:59;;;;;;;39.92;25.55;;;;;;;14.34;100.00;101503.06;5042941;28;20049;-72
2023/07/06 01:31:02;;;;;;;35.92;24.15;;;;;;;14.36;100.00;101511.03;5044725;28;20047;-71
2023/07/06 01:33:48;;;;;;;35.53;22.17;;;;;;;14.38;100.00;101493.84;5038196;28;20046;-71
2023/07/06 01:36:27;;;;;;;36.42;20.30;;;;;;;14.38;100.00;101501.03;5035293;28;20121;-71
2023/07/06 01:39:18;;;;;;;37.42;22.85;;;;;;;14.26;100.00;101500.06;5034863;28;20218;-71
2023/07/06 01:41:45;;;;;;;35.92;22.67;;;;;;;14.31;100.00;101499.72;5037083;28;20037;-71
2023/07/06 01:44:14;;;;;;;37.13;24.60;;;;;;;14.17;100.00;101496.19;5070810;27;20045;-71
2023/07/06 01:46:49;;;;;;;40.88;25.77;;;;;;;14.15;100.00;101505.28;5040912;28;20057;-71
2023/07/06 01:49:17;;;;;;;39.85;28.10;;;;;;;14.08;100.00;101510.22;5039178;28;20120;-71
2023/07/06 01:52:03;;;;;;;41.47;29.40;;;;;;;14.04;100.00;101507.84;5041182;28;20042;-71
2023/07/06 01:54:38;;;;;;;43.47;29.85;;;;;;;14.06;100.00;101508.63;5039544;28;20055;-71
2023/07/06 01:57:15;;;;;;;45.83;30.20;;;;;;;13.94;100.00;101513.81;5039252;28;20043;-71
2023/07/06 01:59:46;;;;;;;43.63;28.70;;;;;;;13.80;100.00;101503.13;5044960;28;20038;-71
2023/07/06 02:02:14;;;;;;;48.30;28.05;;;;;;;13.93;100.00;101511.25;5039406;28;20663;-71
2023/07/06 02:04:43;;;;;;;34.80;25.80;;;;;;;13.92;100.00;101506.84;5032306;28;20121;-72
2023/07/06 02:07:11;;;;;;;44.28;27.83;;;;;;;13.71;100.00;101510.00;5031563;28;20029;-72
2023/07/06 02:09:45;;;;;;;37.92;24.23;;;;;;;13.84;100.00;101510.03;5032444;28;20041;-71
2023/07/06 02:12:13;;;;;;;37.13;24.05;;;;;;;13.80;100.00;101511.19;5067864;27;20324;-71
2023/07/06 02:14:41;;;;;;;33.70;20.75;;;;;;;13.77;100.00;101508.72;5038422;28;20116;-71
2023/07/06 02:17:07;;;;;;;31.95;21.75;;;;;;;13.74;100.00;101506.22;5036234;28;20978;-71
2023/07/06 02:19:35;;;;;;;29.17;21.08;;;;;;;13.66;100.00;101506.75;5033428;28;20029;-71
2023/07/06 02:22:03;;;;;;;34.20;20.95;;;;;;;13.67;100.00;101510.28;5035439;28;20044;-72
2023/07/06 02:24:28;;;;;;;34.67;21.48;;;;;;;13.72;100.00;101503.66;5034942;28;20068;-71
2023/07/06 02:26:54;;;;;;;36.22;21.23;;;;;;;13.59;100.00;101502.72;5034160;28;20649;-71
2023/07/06 02:29:22;;;;;;;34.53;21.70;;;;;;;13.69;100.00;101498.50;5035244;28;20033;-71
2023/07/06 02:31:49;;;;;;;35.60;23.25;;;;;;;13.72;100.00;101500.97;5030798;28;20041;-71
2023/07/06 02:34:21;;;;;;;39.55;22.10;;;;;;;13.86;100.00;101496.53;5031116;28;20037;-71
2023/07/06 02:36:47;;;;;;;28.63;19.52;;;;;;;13.93;100.00;101497.84;5030990;28;20026;-71
2023/07/06 02:39:14;;;;;;;34.90;21.80;;;;;;;13.97;100.00;101496.66;5029298;28;20034;-71
2023/07/06 02:41:39;;;;;;;35.20;22.15;;;;;;;14.00;100.00;101494.63;5031681;28;20657;-72
2023/07/06 02:44:05;;;;;;;40.72;24.17;;;;;;;14.03;100.00;101495.41;5034811;28;20045;-71
2023/07/06 02:46:30;;;;;;;38.75;24.05;;;;;;;14.03;100.00;101496.25;5030953;28;20412;-71
2023/07/06 02:48:56;;;;;;;35.10;22.77;;;;;;;14.09;100.00;101498.50;5033949;28;20049;-72
2023/07/06 02:51:22;;;;;;;39.40;23.50;;;;;;;14.06;100.00;101492.53;5038593;28;20123;-71
2023/07/06 02:53:48;;;;;;;35.53;23.98;;;;;;;14.17;100.00;101495.31;5035091;28;20056;-72
2023/07/06 02:56:13;;;;;;;38.95;25.77;;;;;;;14.17;100.00;101496.19;5038440;28;20041;-71
2023/07/06 02:58:39;;;;;;;39.97;25.20;;;;;;;14.09;100.00;101498.50;5033164;28;20033;-71
2023/07/06 03:01:04;;;;;;;38.55;23.65;;;;;;;14.09;100.00;101492.28;5030560;28;20403;-71
2023/07/06 03:03:30;;;;;;;35.40;22.08;;;;;;;14.16;100.00;101496.28;5034897;28;20616;-71
2023/07/06 03:05:56;;;;;;;33.70;21.33;;;;;;;14.15;100.00;101491.88;5031741;28;20459;-71
2023/07/06 03:08:22;;;;;;;35.03;20.15;;;;;;;14.15;100.00;101492.72;5033053;28;20030;-71
2023/07/06 03:10:47;;;;;;;34.28;18.10;;;;;;;13.99;100.00;101494.72;5031224;28;20037;-71
2023/07/06 03:13:14;;;;;;;25.75;18.73;;;;;;;14.04;100.00;101499.78;5032156;28;20033;-71
2023/07/06 03:15:41;;;;;;;27.98;17.77;;;;;;;14.14;100.00;101501.75;5031461;28;20249;-71
2023/07/06 03:18:08;;;;;;;24.20;17.85;;;;;;;14.08;100.00;101504.84;5031621;28;20037;-72
2023/07/06 03:20:36;;;;;;;36.47;19.00;;;;;;;13.97;100.00;101499.34;5029949;28;20038;-72
2023/07/06 03:23:02;;;;;;;31.55;20.30;;;;;;;14.08;100.00;101499.47;5039527;28;20195;-71
2023/07/06 03:25:29;;;;;;;29.67;17.67;;;;;;;13.99;100.00;101510.81;5037417;28;20537;-72
2023/07/06 03:27:56;;;;;;;32.53;19.25;;;;;;;13.95;100.00;101507.47;5034743;28;20068;-71
2023/07/06 03:30:28;;;;;;;29.88;20.38;;;;;;;13.88;100.00;101514.22;5036374;28;20112;-72
2023/07/06 03:33:00;;;;;;;30.83;18.60;;;;;;;14.00;100.00;101510.72;5040055;28;20030;-71
2023/07/06 03:35:26;;;;;;;28.83;18.25;;;;;;;13.84;100.00;101511.84;5038013;28;20037;-71
2023/07/06 03:37:58;;;;;;;25.77;17.58;;;;;;;13.82;100.00;101519.16;5039214;28;20324;-72
2023/07/06 03:40:26;;;;;;;;;;;;;;;13.82;100.00;101514.63;5034623;28;20056;-72
2023/07/06 03:42:55;;;;;;;26.55;17.48;;;;;;;13.89;100.00;101515.94;5036336;28;19976;-72
2023/07/06 03:45:22;;;;;;;32.25;18.15;;;;;;;13.97;100.00;101513.63;5040191;28;20037;-71
2023/07/06 03:47:50;;;;;;;24.52;17.73;;;;;;;13.96;100.00;101514.59;5038040;28;20048;-71
2023/07/06 03:50:17;;;;;;;28.90;16.92;;;;;;;13.89;100.00;101507.91;5039617;28;20043;-71
2023/07/06 03:52:44;;;;;;;26.80;17.10;;;;;;;13.94;100.00;101510.28;5035737;28;20056;-72
2023/07/06 03:55:14;;;;;;;26.85;16.38;;;;;;;13.91;100.00;101511.34;5032172;28;20346;-71
2023/07/06 03:57:40;;;;;;;33.13;16.92;;;;;;;13.90;100.00;101514.97;5032055;28;20432;-71
2023/07/06 04:00:22;;;;;;;30.40;17.98;;;;;;;13.94;100.00;101512.94;5035916;28;20136;-71
2023/07/06 04:02:49;;;;;;;;;;;;;;;13.92;100.00;101518.44;5040794;28;20073;-72
2023/07/06 04:05:17;;;;;;;36.33;16.15;;;;;;;13.96;100.00;101514.59;5038443;28;19916;-71
2023/07/06 04:07:44;;;;;;;24.13;15.98;;;;;;;13.92;100.00;101515.75;5046098;28;20067;-72
2023/07/06 04:10:12;;;;;;;22.40;14.52;;;;;;;13.98;100.00;101519.84;5034266;28;20041;-71
2023/07/06 04:12:38;;;;;;;27.55;14.00;;;;;;;14.03;100.00;101523.06;5032678;28;20167;-71
2023/07/06 04:15:05;;;;;;;22.38;14.00;;;;;;;14.12;100.00;101518.91;5030520;28;20033;-72
2023/07/06 04:17:32;;;;;;;21.38;13.45;;;;;;;14.09;100.00;101519.97;5035256;28;20037;-72
2023/07/06 04:19:58;;;;;;;22.30;12.57;;;;;;;14.17;100.00;101511.41;5034863;28;20041;-71
2023/07/06 04:22:24;;;;;;;29.58;14.43;;;;;;;14.27;100.00;101519.72;5035322;28;20068;-71
2023/07/06 04:24:51;;;;;;;27.50;13.52;;;;;;;14.12;100.00;101516.25;5029783;28;20473;-71
2023/07/06 04:27:17;;;;;;;28.33;15.30;;;;;;;14.29;100.00;101512.41;5035350;28;20033;-71
2023/07/06 04:29:44;;;;;;;25.00;15.85;;;;;;;14.32;100.00;101518.44;5038593;28;20064;-71
2023/07/06 04:32:10;;;;;;;27.10;17.15;;;;;;;14.21;100.00;101523.66;5028863;28;20069;-71
2023/07/06 04:34:37;;;;;;;33.15;19.20;;;;;;;14.40;100.00;101520.56;5031005;28;20068;-71
2023/07/06 04:37:03;;;;;;;29.80;17.85;;;;;;;14.45;100.00;101523.78;5061775;28;20045;-72
2023/07/06 04:39:29;;;;;;;23.63;15.55;;;;;;;14.58;100.00;101521.16;5037365;28;20026;-71
2023/07/06 04:41:55;;;;;;;22.38;16.08;;;;;;;14.79;100.00;101527.72;5031261;28;20057;-71
2023/07/06 04:44:20;;;;;;;27.65;15.88;;;;;;;14.79;100.00;101519.66;5029566;28;20056;-71
2023/07/06 04:46:46;;;;;;;19.52;13.73;;;;;;;14.88;100.00;101529.75;5033422;28;20029;-71
2023/07/06 04:49:11;;;;;;;22.75;14.38;;;;;;;14.94;100.00;101537.38;5028797;28;20026;-71
2023/07/06 04:51:37;;;;;;;23.50;14.30;;;;;;;15.02;100.00;101526.09;5037329;28;20044;-71
2023/07/06 04:54:03;;;;;;;21.10;13.57;;;;;;;14.90;100.00;101530.50;5040530;28;20044;-71
2023/07/06 04:56:29;;;;;;;22.50;12.75;;;;;;;15.11;100.00;101527.25;5031875;28;20369;-72
2023/07/06 04:58:56;;;;;;;24.13;13.20;;;;;;;15.18;100.00;101531.25;5029420;28;20502;-71
2023/07/06 05:01:24;;;;;;;23.23;12.10;;;;;;;15.22;100.00;101530.91;5028088;28;20401;-72
2023/07/06 05:03:49;;;;;;;22.15;11.57;;;;;;;15.20;100.00;101529.28;5033531;28;20123;-72
2023/07/06 05:06:15;;;;;;;29.98;11.93;;;;;;;15.13;100.00;101534.25;5034434;28;20037;-71
2023/07/06 05:08:44;;;;;;;18.20;10.98;;;;;;;14.95;100.00;101536.41;5028639;28;20033;-71
2023/07/06 05:11:10;;;;;;;19.33;10.75;;;;;;;15.17;100.00;101534.91;5039926;28;20033;-72
2023/07/06 05:13:37;;;;;;;19.83;10.90;;;;;;;15.24;100.00;101534.34;5067420;28;20041;-72
2023/07/06 05:16:03;;;;;;;22.15;10.77;;;;;;;15.05;100.00;101533.94;5034444;28;20022;-72
2023/07/06 05:18:29;;;;;;;35.20;12.30;;;;;;;14.91;100.00;101534.94;5033249;28;20887;-72
2023/07/06 05:20:56;;;;;;;22.63;10.80;;;;;;;14.99;100.00;101537.91;5037782;28;20037;-72
2023/07/06 05:23:25;;;;;;;17.98;11.45;;;;;;;14.98;100.00;101543.41;5029985;28;20538;-72
2023/07/06 05:25:52;;;;;;;25.58;12.57;;;;;;;15.06;100.00;101535.66;5033410;28;20041;-72
2023/07/06 05:28:19;;;;;;;21.88;12.25;;;;;;;15.05;100.00;101535.75;5033758;28;20033;-72
2023/07/06 05:30:45;;;;;;;21.25;12.80;;;;;;;15.14;100.00;101537.78;5034761;28;20061;-72
2023/07/06 05:33:12;;;;;;;23.02;11.40;;;;;;;15.19;100.00;101539.19;5037489;28;20037;-72
2023/07/06 05:35:38;;;;;;;20.92;12.35;;;;;;;15.23;100.00;101540.69;5033959;28;20048;-72
2023/07/06 05:38:07;;;;;;;21.15;12.05;;;;;;;15.31;100.00;101537.44;5034294;28;20030;-72
2023/07/06 05:40:32;;;;;;;26.10;12.88;;;;;;;15.34;100.00;101549.81;5032819;28;20029;-72
2023/07/06 05:42:58;;;;;;;21.35;12.07;;;;;;;15.29;100.00;101540.25;5037814;28;20252;-72
2023/07/06 05:45:25;;;;;;;21.48;12.35;;;;;;;15.29;100.00;101545.63;5037269;28;20037;-72
2023/07/06 05:47:50;;;;;;;26.52;12.35;;;;;;;15.21;100.00;101549.81;5036993;28;20048;-72
2023/07/06 05:50:16;;;;;;;21.05;12.48;;;;;;;15.60;100.00;101545.22;5032213;28;20052;-72
2023/07/06 05:52:42;;;;;;;23.23;11.18;;;;;;;15.89;100.00;101548.47;5042503;28;20049;-72
2023/07/06 05:55:08;;;;;;;26.90;11.52;;;;;;;16.11;100.00;101553.09;5033056;28;20044;-72
2023/07/06 05:57:33;;;;;;;20.05;10.30;;;;;;;16.19;100.00;101556.94;5034164;28;20033;-72
2023/07/06 05:59:59;;;;;;;20.67;11.27;;;;;;;16.40;100.00;101558.97;5036079;28;20402;-72
2023/07/06 06:02:26;;;;;;;16.45;9.98;;;;;;;16.05;100.00;101555.28;5036210;28;20836;-73
2023/07/06 06:04:52;;;;;;;20.85;10.88;;;;;;;16.05;100.00;101559.81;5043166;28;20033;-72
2023/07/06 06:07:22;;;;;;;16.60;9.93;;;;;;;16.72;100.00;101562.78;5032532;28;20038;-72
2023/07/06 06:09:48;;;;;;;23.77;10.30;;;;;;;17.28;100.00;101560.13;5039216;28;20774;-72
2023/07/06 06:12:18;;;;;;;18.95;10.80;;;;;;;16.93;100.00;101551.31;5036247;28;20026;-72
2023/07/06 06:14:53;;;;;;;18.13;10.75;;;;;;;17.39;100.00;101558.41;5040783;28;20072;-72
2023/07/06 06:17:19;;;;;;;29.15;10.40;;;;;;;17.36;100.00;101551.41;5039435;28;20026;-72
2023/07/06 06:19:45;;;;;;;21.88;9.95;;;;;;;17.44;100.00;101557.06;5036847;28;20073;-73
2023/07/06 06:22:13;;;;;;;18.63;11.05;;;;;;;17.53;100.00;101564.41;5038787;28;20052;-72
2023/07/06 06:24:39;;;;;;;21.02;10.35;;;;;;;17.69;100.00;101560.47;5035160;28;20044;-71
2023/07/06 06:27:05;;;;;;;21.42;10.80;;;;;;;17.66;100.00;101563.41;5040133;28;20036;-72
2023/07/06 06:29:32;;;;;;;21.20;11.55;;;;;;;17.77;100.00;101569.69;5036324;28;20038;-72
2023/07/06 06:31:59;;;;;;;26.02;12.27;;;;;;;17.90;100.00;101560.56;5037049;28;20057;-72
2023/07/06 06:34:25;;;;;;;25.85;12.02;;;;;;;17.94;100.00;101565.56;5036407;28;20033;-72
2023/07/06 06:36:51;;;;;;;26.77;13.27;;;;;;;18.18;100.00;101562.69;5032867;28;20037;-72
2023/07/06 06:39:19;;;;;;;27.35;13.50;;;;;;;18.25;100.00;101569.25;5037226;28;20042;-72
2023/07/06 06:41:46;;;;;;;28.20;13.20;;;;;;;18.35;100.00;101569.34;5034279;28;20041;-72
2023/07/06 06:44:15;;;;;;;29.55;13.60;;;;;;;18.35;100.00;101572.91;5058697;28;20037;-72
2023/07/06 06:46:45;;;;;;;33.30;15.02;;;;;;;18.32;100.00;101575.00;5030219;28;20133;-72
2023/07/06 06:49:12;;;;;;;26.30;13.88;;;;;;;18.81;100.00;101581.66;5032840;28;20133;-73
2023/07/06 06:51:37;;;;;;;32.97;15.27;;;;;;;18.89;100.00;101579.16;5033174;28;20037;-72
2023/07/06 06:54:03;;;;;;;30.30;14.48;;;;;;;18.86;100.00;101585.66;5034260;28;20040;-73
2023/07/06 06:56:29;;;;;;;33.03;15.70;;;;;;;19.00;100.00;101589.03;5034032;28;20572;-73
2023/07/06 06:58:55;;;;;;;30.88;15.57;;;;;;;19.33;100.00;101587.94;5029189;28;21050;-72
2023/07/06 07:01:25;;;;;;;35.13;15.82;;;;;;;19.31;100.00;101590.75;5034666;28;20040;-72
2023/07/06 07:03:51;;;;;;;28.33;14.48;;;;;;;19.39;100.00;101593.63;5036119;28;20028;-73
2023/07/06 07:06:17;;;;;;;32.83;17.00;;;;;;;19.43;100.00;101594.22;5029101;28;20076;-71
2023/07/06 07:08:49;;;;;;;35.03;17.25;;;;;;;18.84;100.00;101598.47;5062229;28;20148;-71
2023/07/06 07:11:20;;;;;;;34.28;18.55;;;;;;;18.97;100.00;101592.00;5038007;28;20124;-70
2023/07/06 07:13:47;;;;;;;37.17;17.95;;;;;;;18.81;100.00;101605.97;5034985;28;20034;-71
2023/07/06 07:16:14;;;;;;;32.60;17.77;;;;;;;18.13;100.00;101613.50;5043294;28;20112;-71
2023/07/06 07:18:43;;;;;;;40.95;18.77;;;;;;;18.41;100.00;101616.59;5031975;28;20038;-73
2023/07/06 07:21:12;;;;;;;33.92;17.90;;;;;;;18.75;100.00;101620.03;5042308;28;20030;-72
2023/07/06 07:23:44;;;;;;;37.63;19.13;;;;;;;18.88;100.00;101616.13;5032398;28;20994;-72
2023/07/06 07:26:19;;;;;;;35.33;19.77;;;;;;;18.59;100.00;101621.28;5031632;28;20037;-72
2023/07/06 07:28:48;;;;;;;39.28;20.23;;;;;;;18.93;100.00;101629.25;5036027;28;20033;-72
2023/07/06 07:31:15;;;;;;;41.30;20.02;;;;;;;18.84;100.00;101625.50;5033783;28;20056;-72
2023/07/06 07:33:42;;;;;;;37.85;19.90;;;;;;;18.96;100.00;101623.56;5037685;28;20589;-72
2023/07/06 07:36:09;;;;;;;40.85;20.00;;;;;;;19.43;100.00;101634.81;5041162;28;20032;-72
2023/07/06 07:38:42;;;;;;;35.17;19.77;;;;;;;19.63;100.00;101616.84;5035699;28;20034;-73
2023/07/06 07:41:13;;;;;;;36.45;20.35;;;;;;;20.08;100.00;101622.66;5039583;28;20040;-71
2023/07/06 07:43:42;;;;;;;34.38;19.13;;;;;;;20.28;100.00;101615.41;5041288;28;20045;-73
2023/07/06 07:46:17;;;;;;;33.40;19.52;;;;;;;20.11;100.00;101619.66;5030832;28;20061;-71
2023/07/06 07:48:46;;;;;;;38.90;20.13;;;;;;;19.94;100.00;101622.19;5033143;28;20036;-73
2023/07/06 07:51:15;;;;;;;42.63;20.67;;;;;;;19.71;100.00;101619.69;5034687;28;20039;-73
2023/07/06 07:53:44;;;;;;;38.72;22.17;;;;;;;20.01;100.00;101618.78;5038386;28;20053;-71
2023/07/06 07:56:15;;;;;;;43.92;21.77;;;;;;;19.85;100.00;101632.00;5038426;28;20096;-72
2023/07/06 07:58:42;;;;;;;33.35;21.38;;;;;;;19.90;100.00;101625.16;5030756;28;20046;-73
2023/07/06 08:01:14;;;;;;;38.78;21.50;;;;;;;19.79;100.00;101627.16;5029769;28;20030;-73
2023/07/06 08:03:43;;;;;;;41.38;22.48;;;;;;;19.66;100.00;101641.75;5031089;28;20561;-73
2023/07/06 08:06:16;;;;;;;39.65;23.38;;;;;;;19.91;100.00;101636.84;5035554;28;20076;-73
2023/07/06 08:08:43;;;;;;;36.95;22.48;;;;;;;20.06;100.00;101634.59;5032713;28;20037;-73
2023/07/06 08:11:14;;;;;;;40.67;23.77;;;;;;;19.65;100.00;101639.19;5032295;28;20032;-70
2023/07/06 08:13:45;;;;;;;37.42;23.45;;;;;;;20.24;100.00;101637.50;5066719;28;20203;-72
2023/07/06 08:16:13;;;;;;;47.35;24.70;;;;;;;20.21;100.00;101645.91;5031434;28;20041;-73
2023/07/06 08:18:42;;;;;;;44.58;22.65;;;;;;;19.94;100.00;101646.56;5064679;28;20041;-73
2023/07/06 08:21:08;;;;;;;46.08;24.20;;;;;;;20.15;100.00;101644.63;5039781;28;20033;-73
2023/07/06 08:23:42;;;;;;;38.30;24.00;;;;;;;19.98;100.00;101645.28;5033524;28;21236;-73
2023/07/06 08:26:10;;;;;;;38.38;21.20;;;;;;;20.47;100.00;101644.38;5032621;28;20037;-71
2023/07/06 08:28:39;;;;;;;35.95;20.30;;;;;;;21.11;100.00;101645.63;5050132;28;20030;-71
2023/07/06 08:31:15;;;;;;;37.55;21.45;;;;;;;21.64;100.00;101639.63;5035692;28;20033;-74
2023/07/06 08:33:44;;;;;;;40.88;20.67;;;;;;;21.30;99.74;101644.72;5040440;28;20037;-72
2023/07/06 08:36:13;;;;;;;37.75;22.08;;;;;;;21.24;98.83;101648.88;5038998;28;20034;-73
2023/07/06 08:38:43;;;;;;;33.53;19.88;;;;;;;21.36;98.73;101649.59;5035581;28;20048;-72
2023/07/06 08:41:34;;;;;;;38.42;21.38;;;;;;;21.60;99.61;101659.94;5019335;28;20066;-73
2023/07/06 08:44:05;;;;;;;33.77;20.33;;;;;;;21.95;98.09;101656.47;5039095;28;20068;-73
2023/07/06 08:46:41;;;;;;;31.88;19.75;;;;;;;21.64;95.88;101664.06;5040117;28;20284;-73
2023/07/06 08:49:33;;;;;;;33.38;20.17;;;;;;;22.02;98.12;101662.16;5020771;28;20076;-73
2023/07/06 08:52:03;;;;;;;30.75;19.02;;;;;;;21.59;95.10;101675.38;5035325;28;20157;-73
2023/07/06 08:54:30;;;;;;;33.97;20.13;;;;;;;21.88;100.00;101661.63;5030008;28;20773;-72
2023/07/06 08:56:57;;;;;;;34.40;18.73;;;;;;;21.67;96.56;101674.59;5035235;28;20068;-72
2023/07/06 08:59:36;;;;;;;38.47;19.30;;;;;;;21.83;98.64;101671.25;5031135;28;20033;-72
2023/07/06 09:02:22;;;;;;;32.80;19.83;;;;;;;22.32;96.97;101669.16;5029949;28;20110;-72
2023/07/06 09:04:51;;;;;;;30.73;19.35;;;;;;;22.54;91.31;101663.28;5030397;28;20547;-72
2023/07/06 09:07:21;;;;;;;28.65;18.10;;;;;;;22.12;90.38;101671.13;5035921;28;20038;-72
2023/07/06 09:09:47;;;;;;;27.80;18.30;;;;;;;22.29;93.22;101670.31;5038398;28;20037;-72
2023/07/06 09:12:27;;;;;;;31.90;18.65;;;;;;;23.07;94.20;101672.41;5034644;28;20058;-72
2023/07/06 09:14:53;;;;;;;32.25;17.23;;;;;;;22.56;84.38;101671.25;5033070;28;20076;-72
2023/07/06 09:17:20;;;;;;;32.65;18.42;;;;;;;23.02;89.34;101669.31;5031930;28;20032;-72
2023/07/06 09:19:46;;;;;;;30.48;19.80;;;;;;;22.89;91.68;101670.59;5033491;28;20053;-73
2023/07/06 09:22:13;;;;;;;30.50;17.45;;;;;;;23.85;86.68;101667.81;5037186;28;20144;-72
2023/07/06 09:24:44;;;;;;;28.50;18.77;;;;;;;23.69;82.92;101667.72;5024005;28;20065;-72
2023/07/06 09:27:19;;;;;;;42.55;19.13;;;;;;;23.65;88.00;101669.09;5036362;28;20044;-72
2023/07/06 09:29:56;;;;;;;31.85;18.98;;;;;;;23.71;83.10;101676.59;5032482;28;20083;-71
2023/07/06 09:32:23;;;;;;;29.10;18.48;;;;;;;23.77;83.63;101676.78;5039330;28;20033;-71
2023/07/06 09:34:54;;;;;;;29.27;18.52;;;;;;;24.51;81.92;101672.47;5031375;28;20038;-71
2023/07/06 09:37:21;;;;;;;30.88;18.25;;;;;;;24.42;76.96;101678.06;5030905;28;20037;-71
2023/07/06 09:39:58;;;;;;;28.45;17.17;;;;;;;24.44;78.54;101676.00;5034265;28;20160;-71
2023/07/06 09:42:25;;;;;;;28.02;18.65;;;;;;;24.37;79.61;101675.00;5032132;28;20040;-71
2023/07/06 09:44:51;;;;;;;32.97;18.52;;;;;;;24.15;79.06;101671.84;5031992;28;20037;-71
2023/07/06 09:47:17;;;;;;;28.67;16.77;;;;;;;24.64;74.68;101682.00;5033846;28;20030;-71
2023/07/06 09:50:20;;;;;;;29.88;16.33;;;;;;;24.69;72.67;101676.91;5042764;28;20036;-71
2023/07/06 09:52:47;;;;;;;27.15;14.88;;;;;;;24.17;73.56;101679.84;5046074;28;20144;-71
2023/07/06 09:55:25;;;;;;;27.45;15.15;;;;;;;23.51;76.22;101678.66;5029038;28;20117;-71
2023/07/06 09:57:51;;;;;;;26.20;16.00;;;;;;;23.79;76.41;101690.25;5027566;28;20036;-71
2023/07/06 10:00:22;;;;;;;26.27;16.77;;;;;;;23.21;75.54;101685.44;5026853;28;20764;-72
2023/07/06 10:03:18;;;;;;;21.70;14.25;;;;;;;23.71;80.20;101687.50;5029519;28;20041;-71
2023/07/06 10:06:00;;;;;;;23.70;14.82;;;;;;;23.24;78.31;101679.66;5042062;28;20379;-70
2023/07/06 10:08:34;;;;;;;;;;;;;;;23.43;79.52;101682.19;5031717;28;20041;-71
2023/07/06 10:11:15;;;;;;;24.02;13.77;;;;;;;23.56;77.03;101679.03;5031564;28;20237;-71
2023/07/06 10:13:51;;;;;;;24.13;14.98;;;;;;;23.78;77.93;101689.38;5034081;28;20037;-70
2023/07/06 10:16:38;;;;;;;26.83;16.17;;;;;;;23.72;77.33;101681.88;5062949;28;20322;-70
2023/07/06 10:19:45;;;;;;;29.98;15.05;;;;;;;23.98;73.95;101689.13;5029624;28;20045;-73
2023/07/06 10:22:32;;;;;;;24.00;14.85;;;;;;;23.93;77.61;101686.06;5032088;28;20084;-70
2023/07/06 10:25:08;;;;;;;23.88;15.85;;;;;;;23.95;74.09;101684.03;5044316;28;20037;-71
2023/07/06 10:27:44;;;;;;;35.03;15.68;;;;;;;23.35;76.92;101692.19;5031474;28;20181;-71
2023/07/06 10:30:22;;;;;;;31.80;17.75;;;;;;;22.86;77.74;101687.19;5032679;28;20032;-71
2023/07/06 10:32:52;;;;;;;153.68;27.67;;;;;;;23.73;80.39;101680.00;5031547;28;20083;-71
2023/07/06 10:35:25;;;;;;;30.52;16.88;;;;;;;23.96;73.80;101672.13;5033349;28;20030;-71
2023/07/06 10:37:51;;;;;;;27.20;15.73;;;;;;;24.25;73.14;101668.97;5030788;28;20029;-71
2023/07/06 10:40:20;;;;;;;22.13;15.40;;;;;;;24.10;76.00;101665.16;5029005;28;20036;-72
2023/07/06 10:42:51;;;;;;;23.83;13.85;;;;;;;24.28;72.02;101669.47;5043615;28;20049;-71
2023/07/06 10:45:45;;;;;;;22.55;14.32;;;;;;;24.45;72.57;101674.97;5028657;28;20040;-71
2023/07/06 10:48:32;;;;;;;24.65;13.48;;;;;;;24.29;72.04;101671.16;5045743;28;20175;-73
2023/07/06 10:51:06;;;;;;;21.27;13.23;;;;;;;24.22;74.33;101669.28;5041046;28;20033;-71
2023/07/06 10:53:39;;;;;;;18.85;12.13;;;;;;;24.01;73.56;101673.31;5031595;28;20161;-71
2023/07/06 10:56:17;;;;;;;17.15;9.75;;;;;;;24.29;69.87;101670.31;5031814;28;20072;-72
2023/07/06 10:58:48;;;;;;;19.55;10.13;;;;;;;24.86;67.39;101664.13;5031026;28;20037;-70
2023/07/06 11:01:19;;;;;;;18.67;10.45;;;;;;;24.53;71.56;101669.56;5030860;28;20033;-72
2023/07/06 11:03:46;;;;;;;19.20;9.55;;;;;;;24.82;69.16;101676.41;5029855;28;20041;-71
2023/07/06 11:06:36;;;;;;;19.52;10.43;;;;;;;24.83;66.84;101676.22;5031220;28;20025;-71
2023/07/06 11:09:08;;;;;;;18.55;11.23;;;;;;;24.57;69.86;101683.72;5034503;28;20083;-72
2023/07/06 11:11:38;;;;;;;;;;;;;;;24.40;67.29;101680.09;5037035;28;20037;-73
2023/07/06 11:14:39;;;;;;;20.50;10.52;;;;;;;23.11;69.79;101682.81;5041145;28;19975;-73
2023/07/06 11:17:48;;;;;;;17.45;10.38;;;;;;;23.72;69.24;101681.03;5033714;28;20049;-72
2023/07/06 11:20:26;;;;;;;19.98;9.63;;;;;;;23.77;71.08;101676.78;5025847;28;20053;-72